createdAt,value
2019-05-15T00:01:33.533Z,0.20
2019-05-15T00:04:00.806Z,0.30
2019-05-15T00:06:28.515Z,0.20
2019-05-15T00:08:56.105Z,0.20
2019-05-15T00:11:23.500Z,0.20
2019-05-15T00:13:50.704Z,0.30
2019-05-15T00:16:18.155Z,0.20
2019-05-15T00:18:45.508Z,0.20
2019-05-15T00:21:12.776Z,0.20
2019-05-15T00:23:40.075Z,0.20
2019-05-15T00:26:09.240Z,0.10
2019-05-15T00:28:38.635Z,0.20
2019-05-15T00:31:05.212Z,0.13
2019-05-15T00:33:32.437Z,0.20
2019-05-15T00:35:59.637Z,0.20
2019-05-15T00:38:27.969Z,0.10
2019-05-15T00:40:55.332Z,0.20
2019-05-15T00:43:22.560Z,0.20
2019-05-15T00:45:49.844Z,0.40
2019-05-15T00:48:18.368Z,0.20
2019-05-15T00:50:48.358Z,0.30
2019-05-15T00:53:15.407Z,0.20
2019-05-15T00:55:42.605Z,0.20
2019-05-15T00:58:09.844Z,0.20
2019-05-15T01:00:38.417Z,0.20
2019-05-15T01:03:05.680Z,0.30
2019-05-15T01:05:32.952Z,0.10
2019-05-15T01:08:00.156Z,0.10
2019-05-15T01:10:28.658Z,0.10
2019-05-15T01:12:58.350Z,0.13
2019-05-15T01:15:25.589Z,0.20
2019-05-15T01:17:52.776Z,0.10
2019-05-15T01:20:20.018Z,0.20
2019-05-15T01:22:48.534Z,0.20
2019-05-15T01:25:15.898Z,0.20
2019-05-15T01:27:43.228Z,0.10
2019-05-15T01:30:10.709Z,0.20
2019-05-15T01:32:39.539Z,0.10
2019-05-15T01:35:09.206Z,0.10
2019-05-15T01:37:35.900Z,0.10
2019-05-15T01:40:03.152Z,0.10
2019-05-15T01:42:30.389Z,0.17
2019-05-15T01:44:58.999Z,0.15
2019-05-15T01:47:28.155Z,0.20
2019-05-15T01:49:55.552Z,0.10
2019-05-15T01:52:22.744Z,0.20
2019-05-15T01:54:49.941Z,0.10
2019-05-15T01:57:18.157Z,0.10
2019-05-15T01:59:56.895Z,0.10
2019-05-15T02:02:14.731Z,0.17
2019-05-15T02:04:41.960Z,0.20
2019-05-15T02:07:09.159Z,0.10
2019-05-15T02:09:38.567Z,0.30
2019-05-15T02:12:05.650Z,0.20
2019-05-15T02:14:32.916Z,0.20
2019-05-15T02:17:00.113Z,0.20
2019-05-15T02:19:28.745Z,0.10
2019-05-15T02:21:58.053Z,0.20
2019-05-15T02:24:25.176Z,0.10
2019-05-15T02:26:52.784Z,0.20
2019-05-15T02:29:24.815Z,0.15
2019-05-15T02:31:50.282Z,0.20
2019-05-15T02:34:19.476Z,0.20
2019-05-15T02:36:49.398Z,0.10
2019-05-15T02:39:18.735Z,0.10
2019-05-15T02:41:44.960Z,0.20
2019-05-15T02:44:12.442Z,0.20
2019-05-15T02:46:40.001Z,0.20
2019-05-15T02:49:08.768Z,0.20
2019-05-15T02:51:36.297Z,0.20
2019-05-15T02:54:03.497Z,0.10
2019-05-15T02:56:30.822Z,0.10
2019-05-15T02:58:59.898Z,0.10
2019-05-15T03:01:28.532Z,0.10
2019-05-15T03:03:55.961Z,0.20
2019-05-15T03:06:23.166Z,0.10
2019-05-15T03:08:50.532Z,0.10
2019-05-15T03:11:18.961Z,0.20
2019-05-15T03:13:49.960Z,0.10
2019-05-15T03:16:15.304Z,0.10
2019-05-15T03:18:42.540Z,0.10
2019-05-15T03:21:10.073Z,0.10
2019-05-15T03:23:40.534Z,0.20
2019-05-15T03:26:08.910Z,0.10
2019-05-15T03:28:35.285Z,0.20
2019-05-15T03:31:17.698Z,0.10
2019-05-15T03:33:36.596Z,0.10
2019-05-15T03:36:03.182Z,0.20
2019-05-15T03:38:30.310Z,0.23
2019-05-15T03:40:59.486Z,0.20
2019-05-15T03:43:28.961Z,0.10
2019-05-15T03:45:55.746Z,0.10
2019-05-15T03:48:23.054Z,0.10
2019-05-15T03:50:50.289Z,0.10
2019-05-15T03:53:19.250Z,0.17
2019-05-15T03:55:48.873Z,0.13
2019-05-15T03:58:15.401Z,0.10
2019-05-15T04:00:42.596Z,0.10
2019-05-15T04:03:11.053Z,0.10
2019-05-15T04:05:39.147Z,0.10
2019-05-15T04:08:10.350Z,0.10
2019-05-15T04:10:39.479Z,0.10
2019-05-15T04:13:04.998Z,0.20
2019-05-15T04:15:32.268Z,0.10
2019-05-15T04:18:00.519Z,0.10
2019-05-15T04:20:29.715Z,0.20
2019-05-15T04:23:00.012Z,0.17
2019-05-15T04:25:29.423Z,0.10
2019-05-15T04:27:55.422Z,0.10
2019-05-15T04:30:22.732Z,0.10
2019-05-15T04:32:50.073Z,0.10
2019-05-15T04:35:19.823Z,0.10
2019-05-15T04:37:49.108Z,0.10
2019-05-15T04:40:15.141Z,0.13
2019-05-15T04:42:42.417Z,0.10
2019-05-15T04:45:10.415Z,0.10
2019-05-15T04:47:39.656Z,0.20
2019-05-15T04:50:08.956Z,0.10
2019-05-15T04:52:42.427Z,0.20
2019-05-15T04:55:09.693Z,0.10
2019-05-15T04:57:34.862Z,0.10
2019-05-15T05:00:02.608Z,0.10
2019-05-15T05:02:32.158Z,0.10
2019-05-15T05:04:58.950Z,0.10
2019-05-15T05:07:29.373Z,0.15
2019-05-15T05:09:55.428Z,0.20
2019-05-15T05:12:22.680Z,0.10
2019-05-15T05:14:49.868Z,0.20
2019-05-15T05:17:19.465Z,0.20
2019-05-15T05:19:47.891Z,0.20
2019-05-15T05:22:14.944Z,0.20
2019-05-15T05:24:42.558Z,0.20
2019-05-15T05:27:09.752Z,0.23
2019-05-15T05:29:38.637Z,0.20
2019-05-15T05:32:08.589Z,0.10
2019-05-15T05:34:35.448Z,0.20
2019-05-15T05:37:03.004Z,0.20
2019-05-15T05:39:30.564Z,0.28
2019-05-15T05:41:58.799Z,0.20
2019-05-15T05:44:26.169Z,0.35
2019-05-15T05:46:53.455Z,0.20
2019-05-15T05:49:20.689Z,0.40
2019-05-15T05:51:48.215Z,0.30
2019-05-15T05:54:17.974Z,0.50
2019-05-15T05:56:44.919Z,0.30
2019-05-15T05:59:12.207Z,0.50
2019-05-15T06:01:43.933Z,0.50
2019-05-15T06:04:08.461Z,0.30
2019-05-15T06:06:38.266Z,0.35
2019-05-15T06:09:05.571Z,0.33
2019-05-15T06:11:32.840Z,0.28
2019-05-15T06:14:00.065Z,0.30
2019-05-15T06:16:28.340Z,0.30
2019-05-15T06:18:58.462Z,0.45
2019-05-15T06:21:24.792Z,0.40
2019-05-15T06:23:55.332Z,0.40
2019-05-15T06:26:21.091Z,0.30
2019-05-15T06:28:48.958Z,0.40
2019-05-15T06:31:18.816Z,0.53
2019-05-15T06:40:04.969Z,0.50
2019-05-15T06:42:33.612Z,0.40
2019-05-15T06:45:00.872Z,0.42
2019-05-15T06:47:28.459Z,0.53
2019-05-15T06:49:57.868Z,0.55
2019-05-15T06:52:24.723Z,0.40
2019-05-15T06:54:51.950Z,0.50
2019-05-15T06:57:19.145Z,0.50
2019-05-15T06:59:48.286Z,0.70
2019-05-15T07:02:15.469Z,0.47
2019-05-15T07:04:42.806Z,0.50
2019-05-15T07:07:11.241Z,0.60
2019-05-15T07:09:38.602Z,0.57
2019-05-15T07:12:07.933Z,0.78
2019-05-15T07:14:34.830Z,0.75
2019-05-15T07:17:02.421Z,0.50
2019-05-15T07:19:29.979Z,0.50
2019-05-15T07:21:58.065Z,0.60
2019-05-15T07:24:25.535Z,0.50
2019-05-15T07:26:53.170Z,0.50
2019-05-15T07:29:20.494Z,0.50
2019-05-15T07:31:47.865Z,0.50
2019-05-15T07:34:15.178Z,0.50
2019-05-15T07:36:42.541Z,0.50
2019-05-15T07:39:09.770Z,0.50
2019-05-15T07:41:39.157Z,0.40
2019-05-15T07:44:07.920Z,0.40
2019-05-15T07:46:35.351Z,0.57
2019-05-15T07:49:02.556Z,0.30
2019-05-15T07:51:29.783Z,0.53
2019-05-15T07:53:58.333Z,0.60
2019-05-15T07:56:25.796Z,0.40
2019-05-15T07:58:53.068Z,0.70
2019-05-15T08:01:21.127Z,0.70
2019-05-15T08:03:59.533Z,0.50
2019-05-15T08:06:18.000Z,0.50
2019-05-15T08:08:45.552Z,0.50
2019-05-15T08:11:20.139Z,0.47
2019-05-15T08:13:41.780Z,0.60
2019-05-15T08:16:09.015Z,0.30
2019-05-15T08:18:36.283Z,0.30
2019-05-15T08:21:03.525Z,0.40
2019-05-15T08:23:30.732Z,0.53
2019-05-15T08:25:58.077Z,0.60
2019-05-15T08:28:25.450Z,0.50
2019-05-15T08:30:52.652Z,0.50
2019-05-15T08:33:19.952Z,0.50
2019-05-15T08:35:50.829Z,0.40
2019-05-15T08:38:18.194Z,0.37
2019-05-15T08:40:45.119Z,0.50
2019-05-15T08:43:12.348Z,0.40
2019-05-15T08:45:39.620Z,0.45
2019-05-15T08:48:09.190Z,0.47
2019-05-15T08:50:35.817Z,0.45
2019-05-15T08:53:03.044Z,0.40
2019-05-15T08:55:30.246Z,0.50
2019-05-15T08:58:07.778Z,0.50
2019-05-15T09:00:29.262Z,0.60
2019-05-15T09:02:57.813Z,0.37
2019-05-15T09:05:24.408Z,0.30
2019-05-15T09:07:51.653Z,0.40
2019-05-15T09:10:18.953Z,0.40
2019-05-15T09:12:46.574Z,0.42
2019-05-15T09:15:14.058Z,0.62
2019-05-15T09:17:41.357Z,0.42
2019-05-15T09:20:09.911Z,0.45
2019-05-15T09:22:38.240Z,0.50
2019-05-15T09:25:08.860Z,1.02
2019-05-15T09:27:35.536Z,0.78
2019-05-15T09:30:03.705Z,0.70
2019-05-15T09:32:30.933Z,0.60
2019-05-15T09:34:59.346Z,0.45
2019-05-15T09:37:28.728Z,0.80
2019-05-15T09:39:58.260Z,0.60
2019-05-15T09:42:25.021Z,0.60
2019-05-15T09:44:52.219Z,0.50
2019-05-15T09:47:19.497Z,0.50
2019-05-15T09:49:48.503Z,0.55
2019-05-15T09:52:19.981Z,0.50
2019-05-15T09:54:44.613Z,0.60
2019-05-15T09:57:11.828Z,0.47
2019-05-15T09:59:39.251Z,0.60
2019-05-15T10:02:09.083Z,0.60
2019-05-15T10:04:35.548Z,0.60
2019-05-15T10:07:02.749Z,0.70
2019-05-15T10:09:29.976Z,0.90
2019-05-15T10:11:57.172Z,0.70
2019-05-15T10:14:24.964Z,1.07
2019-05-15T10:16:52.183Z,1.30
2019-05-15T10:19:19.464Z,0.60
2019-05-15T10:21:52.498Z,1.10
2019-05-15T10:24:18.076Z,1.10
2019-05-15T10:26:44.536Z,0.80
2019-05-15T10:29:11.762Z,0.60
2019-05-15T10:31:39.071Z,0.60
2019-05-15T10:34:08.867Z,0.47
2019-05-15T10:36:35.281Z,0.57
2019-05-15T10:39:02.967Z,0.80
2019-05-15T10:41:30.229Z,0.93
2019-05-15T10:44:00.143Z,0.80
2019-05-15T10:46:26.453Z,0.82
2019-05-15T10:48:53.680Z,0.50
2019-05-15T10:51:21.325Z,0.80
2019-05-15T10:53:48.961Z,0.70
2019-05-15T10:56:18.559Z,0.78
2019-05-15T10:58:50.205Z,0.62
2019-05-15T11:01:14.513Z,0.82
2019-05-15T11:03:41.794Z,0.50
2019-05-15T11:06:09.351Z,0.60
2019-05-15T11:08:39.820Z,0.60
2019-05-15T11:11:05.839Z,0.70
2019-05-15T11:13:33.100Z,0.80
2019-05-15T11:16:00.335Z,0.60
2019-05-15T11:18:28.145Z,0.62
2019-05-15T11:20:58.602Z,0.82
2019-05-15T11:23:25.473Z,0.80
2019-05-15T11:25:52.697Z,0.75
2019-05-15T11:28:19.894Z,0.80
2019-05-15T11:30:48.903Z,0.70
2019-05-15T11:33:18.774Z,0.60
2019-05-15T11:35:58.011Z,0.53
2019-05-15T11:38:16.499Z,0.70
2019-05-15T11:40:44.295Z,0.60
2019-05-15T11:43:11.915Z,0.80
2019-05-15T11:45:39.268Z,0.82
2019-05-15T11:48:08.827Z,0.50
2019-05-15T11:50:35.531Z,0.98
2019-05-15T11:53:02.729Z,0.90
2019-05-15T11:55:30.640Z,0.82
2019-05-15T11:57:59.398Z,0.72
2019-05-15T12:00:30.104Z,0.70
2019-05-15T12:02:58.239Z,0.62
2019-05-15T12:05:24.789Z,0.60
2019-05-15T12:07:52.408Z,0.70
2019-05-15T12:10:19.632Z,0.88
2019-05-15T12:12:49.460Z,1.02
2019-05-15T12:15:15.759Z,0.70
2019-05-15T12:17:43.057Z,0.60
2019-05-15T12:20:10.971Z,0.65
2019-05-15T12:22:39.202Z,0.60
2019-05-15T12:25:09.644Z,0.60
2019-05-15T12:27:35.857Z,0.60
2019-05-15T12:30:04.403Z,0.75
2019-05-15T12:32:36.547Z,0.88
2019-05-15T12:35:00.758Z,0.90
2019-05-15T12:37:28.638Z,0.82
2019-05-15T12:59:48.444Z,0.70
2019-05-15T13:02:15.746Z,0.90
2019-05-15T13:04:43.016Z,0.85
2019-05-15T13:07:16.438Z,0.80
2019-05-15T13:09:39.168Z,0.70
2019-05-15T13:12:08.415Z,0.90
2019-05-15T13:14:35.424Z,0.90
2019-05-15T13:17:02.650Z,0.65
2019-05-15T13:19:30.136Z,0.80
2019-05-15T13:21:57.933Z,0.72
2019-05-15T13:24:28.149Z,0.82
2019-05-15T13:26:54.628Z,0.90
2019-05-15T13:29:21.904Z,0.80
2019-05-15T13:31:49.464Z,0.70
2019-05-15T13:34:19.434Z,0.60
2019-05-15T13:36:48.395Z,0.70
2019-05-15T13:39:14.626Z,0.70
2019-05-15T13:41:41.837Z,0.65
2019-05-15T13:44:09.179Z,0.50
2019-05-15T13:46:38.100Z,0.62
2019-05-15T13:49:05.349Z,0.60
2019-05-15T13:51:32.608Z,0.75
2019-05-15T13:53:59.833Z,1.07
2019-05-15T13:56:28.823Z,0.90
2019-05-15T13:58:58.541Z,0.78
2019-05-15T14:01:25.214Z,0.70
2019-05-15T14:03:52.509Z,0.68
2019-05-15T14:06:19.713Z,0.60
2019-05-15T14:08:48.703Z,0.80
2019-05-15T14:11:15.903Z,1.12
2019-05-15T14:13:43.201Z,1.00
2019-05-15T14:16:10.464Z,0.60
2019-05-15T14:18:39.034Z,0.70
2019-05-15T14:21:08.746Z,0.80
2019-05-15T14:23:35.472Z,0.80
2019-05-15T14:26:17.545Z,0.70
2019-05-15T14:28:31.619Z,0.50
2019-05-15T14:30:59.161Z,0.50
2019-05-15T14:33:26.433Z,0.60
2019-05-15T14:35:53.737Z,0.68
2019-05-15T14:38:21.009Z,0.78
2019-05-15T14:40:48.319Z,0.78
2019-05-15T14:43:15.805Z,0.62
2019-05-15T14:45:43.254Z,0.45
2019-05-15T14:48:10.525Z,0.80
2019-05-15T14:50:38.390Z,0.90
2019-05-15T14:53:06.290Z,0.50
2019-05-15T14:55:34.675Z,0.72
2019-05-15T14:58:02.414Z,0.60
2019-05-15T15:00:34.509Z,0.50
2019-05-15T15:02:59.009Z,0.70
2019-05-15T15:05:26.621Z,0.70
2019-05-15T15:07:53.813Z,0.70
2019-05-15T15:10:21.026Z,0.60
2019-05-15T15:12:49.944Z,0.80
2019-05-15T15:15:18.078Z,0.70
2019-05-15T15:17:45.409Z,0.60
2019-05-15T15:20:13.292Z,0.82
2019-05-15T15:22:40.872Z,0.60
2019-05-15T15:25:09.685Z,0.93
2019-05-15T15:27:38.649Z,0.40
2019-05-15T15:30:09.152Z,0.40
2019-05-15T15:32:37.746Z,0.50
2019-05-15T15:35:08.833Z,0.57
2019-05-15T15:37:38.107Z,0.70
2019-05-15T15:40:08.116Z,0.70
2019-05-15T15:42:35.003Z,0.60
2019-05-15T15:45:02.342Z,0.70
2019-05-15T15:47:29.958Z,0.50
2019-05-15T15:49:58.525Z,0.70
2019-05-15T15:52:25.846Z,0.60
2019-05-15T15:54:54.067Z,0.30
2019-05-15T15:57:21.301Z,0.60
2019-05-15T15:59:49.129Z,0.62
2019-05-15T16:02:18.576Z,0.50
2019-05-15T16:04:45.503Z,0.45
2019-05-15T16:07:13.092Z,0.35
2019-05-15T16:09:40.349Z,0.50
2019-05-15T16:12:09.697Z,0.40
2019-05-15T16:14:38.147Z,0.42
2019-05-15T16:17:05.534Z,0.60
2019-05-15T16:19:32.739Z,0.50
2019-05-15T16:22:00.056Z,0.60
2019-05-15T16:24:29.169Z,0.55
2019-05-15T16:26:57.990Z,0.40
2019-05-15T16:29:25.134Z,0.30
2019-05-15T16:31:52.432Z,0.55
2019-05-15T16:34:19.637Z,0.50
2019-05-15T16:36:48.913Z,0.40
2019-05-15T16:39:18.114Z,0.50
2019-05-15T16:41:44.877Z,0.40
2019-05-15T16:44:12.150Z,0.40
2019-05-15T16:46:39.748Z,0.45
2019-05-15T16:49:07.019Z,0.30
2019-05-15T16:51:34.335Z,0.62
2019-05-15T16:54:01.637Z,0.40
2019-05-15T16:56:28.937Z,0.60
2019-05-15T16:58:56.228Z,0.40
2019-05-15T17:01:23.539Z,0.60
2019-05-15T17:03:51.134Z,0.50
2019-05-15T17:06:18.837Z,0.40
2019-05-15T17:08:48.576Z,0.30
2019-05-15T17:11:15.033Z,0.50
2019-05-15T17:13:42.334Z,0.50
2019-05-15T17:16:09.534Z,0.30
2019-05-15T17:18:38.162Z,0.30
2019-05-15T17:21:05.543Z,0.30
2019-05-15T17:23:34.463Z,0.20
2019-05-15T17:26:01.740Z,0.40
2019-05-15T17:28:29.236Z,0.60
2019-05-15T17:30:58.347Z,0.33
2019-05-15T17:33:25.584Z,0.40
2019-05-15T17:35:52.851Z,0.50
2019-05-15T17:38:20.109Z,0.35
2019-05-15T17:40:48.409Z,0.30
2019-05-15T17:43:18.319Z,0.30
2019-05-15T17:45:45.099Z,0.40
2019-05-15T17:48:12.473Z,0.35
2019-05-15T17:50:48.641Z,0.40
2019-05-15T17:53:08.840Z,0.40
2019-05-15T17:55:38.406Z,0.30
2019-05-15T17:58:05.534Z,0.33
2019-05-15T18:00:33.008Z,0.20
2019-05-15T18:03:00.312Z,0.40
2019-05-15T18:05:28.262Z,0.30
2019-05-15T18:07:58.168Z,0.20
2019-05-15T18:10:24.800Z,0.30
2019-05-15T18:12:52.116Z,0.30
2019-05-15T18:15:19.390Z,0.30
2019-05-15T18:17:48.163Z,0.28
2019-05-15T18:20:20.160Z,0.20
2019-05-15T18:22:48.155Z,0.10
2019-05-15T18:25:18.135Z,0.25
2019-05-15T18:27:44.726Z,0.35
2019-05-15T18:30:12.097Z,0.20
2019-05-15T18:32:39.425Z,0.10
2019-05-15T18:35:08.304Z,0.50
2019-05-15T18:37:35.593Z,0.40
2019-05-15T18:40:06.297Z,0.30
2019-05-15T18:42:32.184Z,0.40
2019-05-15T18:44:59.484Z,0.40
2019-05-15T18:47:27.979Z,0.30
2019-05-15T18:50:05.359Z,0.47
2019-05-15T18:52:24.271Z,0.40
2019-05-15T18:54:51.776Z,0.40
2019-05-15T18:57:19.053Z,0.40
2019-05-15T18:59:49.457Z,0.30
2019-05-15T19:02:19.016Z,0.60
2019-05-15T19:04:45.752Z,0.40
2019-05-15T19:07:13.681Z,0.40
2019-05-15T19:09:41.004Z,0.47
2019-05-15T19:12:09.209Z,0.47
2019-05-15T19:14:39.378Z,0.50
2019-05-15T19:17:08.109Z,0.55
2019-05-15T19:19:35.382Z,0.30
2019-05-15T19:22:02.644Z,0.47
2019-05-15T19:24:30.213Z,0.50
2019-05-15T19:26:58.641Z,0.40
2019-05-15T19:29:28.344Z,0.30
2019-05-15T19:31:55.144Z,0.30
2019-05-15T19:34:22.344Z,0.30
2019-05-15T19:36:49.620Z,0.23
2019-05-15T19:39:18.615Z,0.20
2019-05-15T19:41:47.603Z,0.20
2019-05-15T19:44:14.989Z,0.25
2019-05-15T19:46:42.300Z,0.20
2019-05-15T19:49:09.775Z,0.30
2019-05-15T19:51:38.101Z,0.50
2019-05-15T19:54:05.653Z,0.40
2019-05-15T19:56:32.929Z,0.40
2019-05-15T19:59:00.204Z,0.40
2019-05-15T20:01:28.254Z,0.30
2019-05-15T20:03:55.695Z,0.30
2019-05-15T20:06:23.327Z,0.30
2019-05-15T20:08:50.938Z,0.30
2019-05-15T20:11:18.508Z,0.30
2019-05-15T20:13:45.785Z,0.23
2019-05-15T20:16:13.093Z,0.20
2019-05-15T20:18:40.357Z,0.20
2019-05-15T20:21:08.842Z,0.20
2019-05-15T20:23:38.104Z,0.20
2019-05-15T20:26:05.130Z,0.30
2019-05-15T20:28:32.708Z,0.20
2019-05-15T20:31:00.020Z,0.30
2019-05-15T20:33:28.602Z,0.35
2019-05-15T20:35:58.554Z,0.25
2019-05-15T20:38:25.287Z,0.37
2019-05-15T20:40:52.594Z,0.30
2019-05-15T20:43:19.860Z,0.30
2019-05-15T20:45:48.356Z,0.30
2019-05-15T20:48:18.202Z,0.20
2019-05-15T20:50:44.972Z,0.13
2019-05-15T20:53:12.297Z,0.20
2019-05-15T20:55:39.916Z,0.20
2019-05-15T20:58:08.024Z,0.10
2019-05-15T21:00:35.430Z,0.20
2019-05-15T21:03:02.809Z,0.13
2019-05-15T21:05:30.352Z,0.10
2019-05-15T21:07:57.958Z,0.20
2019-05-15T21:10:25.242Z,0.17
2019-05-15T21:12:52.527Z,0.20
2019-05-15T21:15:21.362Z,0.20
2019-05-15T21:17:57.539Z,0.20
2019-05-15T21:20:18.308Z,0.10
2019-05-15T21:22:45.700Z,0.20
2019-05-15T21:25:13.139Z,0.20
2019-05-15T21:27:43.002Z,0.10
2019-05-15T21:30:09.574Z,0.10
2019-05-15T21:32:38.320Z,0.10
2019-05-15T21:35:08.793Z,0.10
2019-05-15T21:37:35.353Z,0.15
2019-05-15T21:40:02.554Z,0.10
2019-05-15T21:42:29.856Z,0.15
2019-05-15T21:44:58.222Z,0.10
2019-05-15T21:47:27.929Z,0.10
2019-05-15T21:49:54.788Z,0.20
2019-05-15T21:52:22.367Z,0.10
2019-05-15T21:54:50.449Z,0.20
2019-05-15T21:57:32.415Z,0.15
2019-05-15T21:59:47.189Z,0.10
2019-05-15T22:02:14.464Z,0.10
2019-05-15T22:04:52.770Z,0.10
2019-05-15T22:07:10.788Z,0.20
2019-05-15T22:09:38.217Z,0.20
2019-05-15T22:12:06.524Z,0.20
2019-05-15T22:14:34.186Z,0.10
2019-05-15T22:17:01.460Z,0.10
2019-05-15T22:19:30.208Z,0.20
2019-05-15T22:21:58.643Z,0.20
2019-05-15T22:24:28.412Z,0.10
2019-05-15T22:26:54.976Z,0.20
2019-05-15T22:29:22.276Z,0.10
2019-05-15T22:31:49.464Z,0.28
2019-05-15T22:34:18.434Z,0.20
2019-05-15T22:36:46.196Z,0.10
2019-05-15T22:39:13.424Z,0.10
2019-05-15T22:41:40.699Z,0.20
2019-05-15T22:44:08.272Z,0.10
2019-05-15T22:46:38.249Z,0.13
2019-05-15T22:49:05.612Z,0.10
2019-05-15T22:51:32.889Z,0.20
2019-05-15T22:54:00.189Z,0.10
2019-05-15T22:56:29.604Z,0.10
2019-05-15T22:58:58.398Z,0.10
2019-05-15T23:01:25.756Z,0.10
2019-05-15T23:03:53.356Z,0.10
2019-05-15T23:06:20.720Z,0.20
2019-05-15T23:08:48.884Z,0.10
2019-05-15T23:11:18.331Z,0.10
2019-05-15T23:13:45.344Z,0.10
2019-05-15T23:16:12.540Z,0.10
2019-05-15T23:18:40.130Z,0.10
2019-05-15T23:21:08.827Z,0.10
2019-05-15T23:23:38.057Z,0.10
2019-05-15T23:26:05.510Z,0.10
2019-05-15T23:28:33.133Z,0.10
2019-05-15T23:31:00.430Z,0.10
2019-05-15T23:33:28.238Z,0.10
2019-05-15T23:35:55.748Z,0.10
2019-05-15T23:38:22.946Z,0.20
2019-05-15T23:40:50.184Z,0.20
2019-05-15T23:43:18.956Z,0.10
2019-05-15T23:45:48.379Z,0.10
2019-05-15T23:48:15.372Z,0.10
2019-05-15T23:50:42.601Z,0.10
2019-05-15T23:53:09.792Z,0.10
2019-05-15T23:55:37.035Z,0.10
2019-05-15T23:58:04.288Z,0.10
